Time;durP1;ratioP1;P1;durP2;ratioP2;P2;SDS_P1;SDS_P2;PMS_P1;PMS_P2;Temp;Humidity;BMP_temperature;BMP_pressure;BME280_temperature;BME280_humidity;BME280_pressure;Samples;Min_cycle;Max_cycle;Signal;HPM_P1;HPM_P2
2023/09/28 00:00:38;;;;;;;14.73;9.27;;;;;;;13.37;100.00;100573.22;4988565;28;20224;-71
2023/09/28 00:03:07;;;;;;;13.10;9.03;;;;;;;13.39;100.00;100572.34;4998483;28;20243;-71
2023/09/28 00:05:34;;;;;;;14.80;9.30;;;;;;;13.30;100.00;100560.78;5001333;28;20208;-71
2023/09/28 00:08:01;;;;;;;12.43;8.30;;;;;;;13.24;100.00;100558.09;5005013;28;20303;-71
2023/09/28 00:10:30;;;;;;;14.43;8.80;;;;;;;13.18;100.00;100553.59;5004117;28;20219;-71
2023/09/28 00:12:57;;;;;;;14.10;8.93;;;;;;;13.16;100.00;100545.56;4985403;28;20223;-71
2023/09/28 00:15:26;;;;;;;14.30;8.90;;;;;;;13.18;100.00;100546.50;5002481;28;20200;-71
2023/09/28 00:17:54;;;;;;;13.23;8.70;;;;;;;13.18;100.00;100541.19;5006139;28;20200;-71
2023/09/28 00:20:22;;;;;;;14.53;9.67;;;;;;;13.31;100.00;100546.59;5003143;28;20673;-70
2023/09/28 00:22:54;;;;;;;13.90;9.33;;;;;;;13.44;100.00;100564.38;4987782;28;20224;-70
2023/09/28 00:25:23;;;;;;;14.27;9.10;;;;;;;13.45;100.00;100559.06;5004506;28;20304;-70
2023/09/28 00:27:51;;;;;;;15.37;9.60;;;;;;;13.42;100.00;100552.84;5004895;28;20212;-70
2023/09/28 00:30:20;;;;;;;16.93;9.17;;;;;;;13.32;100.00;100543.94;4984784;28;20209;-71
2023/09/28 00:32:47;;;;;;;17.60;10.60;;;;;;;13.34;100.00;100531.53;5004566;28;20223;-71
2023/09/28 00:35:14;;;;;;;15.77;9.83;;;;;;;13.44;100.00;100529.78;5006798;28;20205;-70
2023/09/28 00:37:41;;;;;;;15.17;9.83;;;;;;;13.59;100.00;100532.50;5003361;28;20208;-70
2023/09/28 00:40:28;;;;;;;14.47;10.03;;;;;;;13.54;100.00;100525.38;5003359;28;20200;-69
2023/09/28 00:42:56;;;;;;;15.33;9.60;;;;;;;13.55;100.00;100533.38;5005029;28;20687;-70
2023/09/28 00:45:23;;;;;;;17.33;10.50;;;;;;;13.58;100.00;100543.13;5003127;28;20664;-71
2023/09/28 00:47:51;;;;;;;17.43;10.77;;;;;;;13.46;100.00;100538.66;5003314;28;20314;-70
2023/09/28 00:50:17;;;;;;;15.50;10.17;;;;;;;13.36;100.00;100535.09;5004411;28;20204;-72
2023/09/28 00:52:48;;;;;;;17.10;10.33;;;;;;;13.35;100.00;100543.06;5006851;28;20224;-69
2023/09/28 00:55:17;;;;;;;16.70;10.43;;;;;;;13.34;100.00;100558.13;5003126;28;20215;-70
2023/09/28 00:57:44;;;;;;;15.27;10.13;;;;;;;13.30;100.00;100547.47;5003495;28;20672;-72
2023/09/28 01:00:32;;;;;;;13.70;9.23;;;;;;;13.29;100.00;100543.03;5004130;28;20200;-72
2023/09/28 01:03:05;;;;;;;14.10;9.37;;;;;;;13.27;100.00;100551.00;4985711;28;20235;-71
2023/09/28 01:05:34;;;;;;;16.10;9.30;;;;;;;13.28;100.00;100549.25;5004062;28;20711;-70
2023/09/28 01:08:18;;;;;;;15.17;8.63;;;;;;;13.28;100.00;100541.25;5000647;28;20235;-70
2023/09/28 01:10:46;;;;;;;17.93;10.70;;;;;;;13.28;100.00;100552.78;4986972;28;20205;-70
2023/09/28 01:13:20;;;;;;;14.27;9.30;;;;;;;13.39;100.00;100550.16;4997699;28;20220;-71
2023/09/28 01:15:49;;;;;;;14.17;9.27;;;;;;;13.39;100.00;100559.03;5004719;28;20291;-69
2023/09/28 01:18:18;;;;;;;13.47;8.80;;;;;;;13.37;100.00;100551.94;4999384;28;20211;-71
2023/09/28 01:20:46;;;;;;;15.60;9.10;;;;;;;13.36;100.00;100552.81;5003245;28;20204;-70
2023/09/28 01:23:13;;;;;;;15.43;8.87;;;;;;;13.38;100.00;100551.06;5005697;28;20239;-71
2023/09/28 01:25:40;;;;;;;16.53;10.27;;;;;;;13.38;100.00;100557.25;5003160;28;20208;-70
2023/09/28 01:28:07;;;;;;;15.07;9.93;;;;;;;13.39;100.00;100542.19;4985273;28;23631;-71
2023/09/28 01:30:34;;;;;;;14.43;10.17;;;;;;;13.46;100.00;100539.56;4999727;28;20291;-70
2023/09/28 01:33:00;;;;;;;17.97;10.27;;;;;;;13.63;100.00;100538.75;5002817;28;20695;-70
2023/09/28 01:35:28;;;;;;;14.73;10.03;;;;;;;13.72;100.00;100552.06;5001372;28;20237;-70
2023/09/28 01:38:15;;;;;;;14.17;9.30;;;;;;;13.62;100.00;100553.81;5002720;28;20211;-70
2023/09/28 01:40:43;;;;;;;16.03;9.77;;;;;;;13.53;100.00;100561.75;5000742;28;20201;-70
2023/09/28 01:43:10;;;;;;;16.10;10.50;;;;;;;13.62;100.00;100561.81;5005705;28;20662;-70
2023/09/28 01:45:39;;;;;;;15.17;9.63;;;;;;;13.62;100.00;100582.22;5003934;28;20655;-70
2023/09/28 01:48:06;;;;;;;16.63;9.60;;;;;;;13.52;100.00;100581.25;4987876;28;20227;-71
2023/09/28 01:50:33;;;;;;;17.50;10.53;;;;;;;13.49;100.00;100567.94;4987177;28;20633;-71
2023/09/28 01:53:00;;;;;;;14.53;9.53;;;;;;;13.49;100.00;100550.19;4999846;28;20307;-70
2023/09/28 01:55:26;;;;;;;16.33;10.37;;;;;;;13.64;100.00;100559.16;5003928;28;20204;-70
2023/09/28 01:57:53;;;;;;;17.70;10.77;;;;;;;13.62;100.00;100563.59;5003103;28;20204;-70
2023/09/28 02:00:20;;;;;;;16.43;10.77;;;;;;;13.62;100.00;100569.78;5002704;28;20419;-70
2023/09/28 02:02:47;;;;;;;15.23;10.33;;;;;;;13.64;100.00;100559.16;5004366;28;20277;-71
2023/09/28 02:05:18;;;;;;;15.17;9.47;;;;;;;13.64;100.00;100556.50;5000266;28;20196;-71
2023/09/28 02:07:45;;;;;;;14.03;9.60;;;;;;;13.68;100.00;100553.84;4986614;28;20204;-71
2023/09/28 02:10:12;;;;;;;16.23;9.93;;;;;;;13.69;100.00;100542.31;5005223;28;20215;-71
2023/09/28 02:12:39;;;;;;;15.00;10.03;;;;;;;13.77;100.00;100547.66;5003282;28;20287;-70
2023/09/28 02:15:08;;;;;;;15.90;9.80;;;;;;;13.89;100.00;100541.47;5006094;28;20578;-70
2023/09/28 02:17:35;;;;;;;18.37;10.50;;;;;;;13.93;100.00;100527.28;4997944;28;20652;-70
2023/09/28 02:20:05;;;;;;;15.07;9.87;;;;;;;14.10;100.00;100536.19;5002213;28;20555;-71
2023/09/28 02:22:32;;;;;;;16.27;10.07;;;;;;;14.05;100.00;100535.31;5005448;28;20774;-70
2023/09/28 02:24:58;;;;;;;15.87;10.17;;;;;;;14.00;100.00;100556.56;5006067;28;20579;-70
2023/09/28 02:27:24;;;;;;;14.17;9.20;;;;;;;13.96;100.00;100588.50;4985185;28;20574;-71
2023/09/28 02:29:51;;;;;;;15.47;9.40;;;;;;;13.87;100.00;100602.69;4987513;28;20203;-71
2023/09/28 02:32:18;;;;;;;13.90;8.63;;;;;;;13.85;100.00;100591.16;5000510;28;20201;-71
2023/09/28 02:34:44;;;;;;;15.80;9.47;;;;;;;13.93;100.00;100573.41;5001263;28;20704;-70
2023/09/28 02:37:11;;;;;;;17.33;9.70;;;;;;;14.00;100.00;100582.31;5005253;28;20211;-70
2023/09/28 02:39:37;;;;;;;15.87;9.30;;;;;;;13.93;100.00;100577.84;5002648;28;20590;-70
2023/09/28 02:42:07;;;;;;;15.87;9.80;;;;;;;13.93;100.00;100578.75;5004196;28;20728;-70
2023/09/28 02:44:35;;;;;;;15.97;9.50;;;;;;;13.99;100.00;100583.19;5003526;28;20225;-69
2023/09/28 02:47:05;;;;;;;15.13;9.43;;;;;;;13.95;100.00;100574.31;4999626;28;20231;-70
2023/09/28 02:49:32;;;;;;;17.03;10.10;;;;;;;13.92;100.00;100581.41;4998587;28;20209;-70
2023/09/28 02:52:00;;;;;;;13.87;9.30;;;;;;;13.88;100.00;100588.50;5000785;28;20211;-70
2023/09/28 02:54:29;;;;;;;14.20;9.13;;;;;;;13.85;100.00;100583.16;5003985;28;20227;-71
2023/09/28 02:56:55;;;;;;;13.93;9.67;;;;;;;13.83;100.00;100590.25;5003459;28;20590;-70
2023/09/28 02:59:22;;;;;;;14.93;9.43;;;;;;;13.84;100.00;100584.06;5002341;28;20223;-71
2023/09/28 03:01:52;;;;;;;15.43;10.30;;;;;;;13.89;100.00;100581.41;5002426;28;20937;-70
2023/09/28 03:04:18;;;;;;;16.50;10.00;;;;;;;13.90;100.00;100565.44;4982536;28;20234;-69
2023/09/28 03:06:46;;;;;;;14.57;9.70;;;;;;;13.89;100.00;100574.28;4987991;28;20560;-71
2023/09/28 03:09:12;;;;;;;14.57;8.83;;;;;;;13.89;100.00;100581.41;5002086;28;20285;-71
2023/09/28 03:11:39;;;;;;;14.23;8.43;;;;;;;13.85;100.00;100574.28;5004531;28;20673;-71
2023/09/28 03:14:06;;;;;;;16.23;9.17;;;;;;;13.84;100.00;100569.84;4989293;28;20223;-69
2023/09/28 03:16:33;;;;;;;15.70;8.87;;;;;;;13.82;100.00;100576.94;5002960;28;20193;-71
2023/09/28 03:19:00;;;;;;;14.50;9.50;;;;;;;13.79;100.00;100577.81;4989455;28;20231;-70
2023/09/28 03:21:29;;;;;;;13.93;9.03;;;;;;;13.79;100.00;100585.81;5005014;28;20230;-71
2023/09/28 03:23:59;;;;;;;15.43;9.87;;;;;;;13.82;100.00;100584.94;5008063;28;20298;-71
2023/09/28 03:26:27;;;;;;;13.00;8.43;;;;;;;13.82;100.00;100568.97;5005697;28;20208;-70
2023/09/28 03:28:55;;;;;;;14.83;9.47;;;;;;;13.85;100.00;100575.19;5005069;28;20219;-71
2023/09/28 03:31:27;;;;;;;16.23;8.97;;;;;;;13.89;100.00;100574.28;4988708;28;20204;-71
2023/09/28 03:33:54;;;;;;;13.23;9.57;;;;;;;13.85;100.00;100569.84;5005937;28;20646;-71
2023/09/28 03:36:21;;;;;;;16.23;9.67;;;;;;;13.86;100.00;100570.75;4991508;28;20236;-70
2023/09/28 03:38:48;;;;;;;15.00;8.93;;;;;;;13.77;100.00;100568.94;5006033;28;20204;-71
2023/09/28 03:41:15;;;;;;;13.50;9.37;;;;;;;13.80;100.00;100566.28;5007497;28;20665;-69
2023/09/28 03:43:44;;;;;;;13.37;9.53;;;;;;;13.83;100.00;100566.28;5003827;28;20247;-71
2023/09/28 03:46:11;;;;;;;11.43;7.97;;;;;;;13.69;100.00;100576.03;5002352;28;20641;-70
2023/09/28 03:48:37;;;;;;;13.60;9.10;;;;;;;13.71;100.00;100580.47;4985309;28;20200;-71
2023/09/28 03:51:04;;;;;;;13.33;8.97;;;;;;;13.56;100.00;100580.38;4996937;28;20693;-70
2023/09/28 03:53:32;;;;;;;14.87;9.37;;;;;;;13.41;100.00;100577.66;5001808;28;20611;-71
2023/09/28 03:55:59;;;;;;;15.20;9.17;;;;;;;13.28;100.00;100570.50;5004308;28;20291;-70
2023/09/28 03:58:25;;;;;;;14.57;9.80;;;;;;;13.22;100.00;100582.00;5002319;28;20208;-69
2023/09/28 04:00:51;;;;;;;16.27;9.63;;;;;;;13.36;100.00;100587.41;5003217;28;20207;-70
2023/09/28 04:03:18;;;;;;;15.23;9.70;;;;;;;13.35;100.00;100580.31;5005164;28;20216;-71
2023/09/28 04:05:44;;;;;;;14.63;9.30;;;;;;;13.25;100.00;100581.13;5007054;28;20283;-70
2023/09/28 04:08:11;;;;;;;16.33;10.07;;;;;;;13.24;100.00;100584.69;5006910;28;20209;-71
2023/09/28 04:10:37;;;;;;;16.53;9.90;;;;;;;13.23;100.00;100578.47;5003180;28;20740;-72
2023/09/28 04:13:03;;;;;;;15.67;9.53;;;;;;;13.12;100.00;100578.34;5004816;28;20748;-70
2023/09/28 04:15:30;;;;;;;14.20;8.83;;;;;;;13.01;100.00;100585.38;5004694;28;20485;-71
2023/09/28 04:18:00;;;;;;;14.63;9.30;;;;;;;12.92;100.00;100601.28;4989886;28;20204;-72
2023/09/28 04:20:26;;;;;;;14.03;9.07;;;;;;;12.82;100.00;100591.47;5005849;28;20203;-72
2023/09/28 04:22:53;;;;;;;13.53;9.23;;;;;;;12.81;100.00;100603.88;5004520;28;20270;-72
2023/09/28 04:25:21;;;;;;;15.60;9.97;;;;;;;12.95;100.00;100601.28;5002481;28;20239;-71
2023/09/28 04:27:48;;;;;;;17.03;10.20;;;;;;;12.94;100.00;100609.25;4988447;28;20205;-71
2023/09/28 04:30:14;;;;;;;12.60;8.67;;;;;;;12.82;100.00;100607.41;5006123;28;20283;-72
2023/09/28 04:32:41;;;;;;;14.50;9.17;;;;;;;12.70;100.00;100602.88;5003924;28;20206;-72
2023/09/28 04:35:10;;;;;;;16.10;9.07;;;;;;;12.62;100.00;100609.88;5001064;28;20236;-71
2023/09/28 04:37:37;;;;;;;17.20;9.80;;;;;;;12.61;100.00;100613.41;5004438;28;20285;-71
2023/09/28 04:40:05;;;;;;;17.70;10.40;;;;;;;12.62;100.00;100609.88;5005074;28;20200;-72
2023/09/28 04:42:31;;;;;;;14.90;9.40;;;;;;;12.53;100.00;100601.84;5008630;28;20216;-71
2023/09/28 04:44:57;;;;;;;13.93;9.33;;;;;;;12.45;100.00;100614.16;5002298;28;20211;-72
2023/09/28 04:47:24;;;;;;;17.27;10.40;;;;;;;12.52;100.00;100619.56;5007347;28;20286;-72
2023/09/28 04:49:51;;;;;;;17.60;10.80;;;;;;;12.52;100.00;100638.16;5007065;28;20260;-72
2023/09/28 04:52:18;;;;;;;15.53;10.03;;;;;;;12.43;100.00;100631.88;5005084;28;20203;-72
2023/09/28 04:54:46;;;;;;;16.07;10.47;;;;;;;12.40;100.00;100637.13;5005527;28;20239;-72
2023/09/28 04:57:12;;;;;;;17.97;11.23;;;;;;;12.55;100.00;100635.50;5004386;28;20626;-72
2023/09/28 04:59:40;;;;;;;16.57;10.20;;;;;;;12.46;100.00;100637.19;5002907;28;20612;-71
2023/09/28 05:02:07;;;;;;;14.63;9.63;;;;;;;12.30;100.00;100640.56;5005986;28;20413;-73
2023/09/28 05:04:34;;;;;;;15.90;9.20;;;;;;;12.20;100.00;100645.78;5006000;28;20686;-72
2023/09/28 05:07:01;;;;;;;15.40;9.70;;;;;;;12.27;100.00;100651.16;4986385;28;20235;-72
2023/09/28 05:09:28;;;;;;;16.00;10.13;;;;;;;12.37;100.00;100637.97;5002952;28;20234;-72
2023/09/28 05:11:56;;;;;;;15.10;9.43;;;;;;;12.29;100.00;100638.78;4989837;28;20200;-73
2023/09/28 05:14:24;;;;;;;19.00;11.40;;;;;;;12.30;100.00;100632.59;4989226;28;20422;-73
2023/09/28 05:16:52;;;;;;;18.63;11.33;;;;;;;12.50;100.00;100645.22;5005023;28;20210;-72
2023/09/28 05:19:18;;;;;;;19.50;11.10;;;;;;;12.55;100.00;100647.91;5005449;28;20215;-72
2023/09/28 05:21:45;;;;;;;16.53;10.80;;;;;;;12.56;100.00;100657.66;4979388;28;20208;-72
2023/09/28 05:24:11;;;;;;;16.73;10.60;;;;;;;12.49;100.00;100666.44;5001837;28;20216;-74
2023/09/28 05:26:37;;;;;;;15.97;10.27;;;;;;;12.40;100.00;100661.91;5005642;28;20680;-72
2023/09/28 05:29:04;;;;;;;19.27;10.57;;;;;;;12.45;100.00;100667.31;5005043;28;20239;-73
2023/09/28 05:31:30;;;;;;;15.57;9.87;;;;;;;12.42;100.00;100656.66;4998999;28;20213;-74
2023/09/28 05:33:57;;;;;;;16.77;10.30;;;;;;;12.42;100.00;100656.66;5003153;28;20309;-75
2023/09/28 05:36:24;;;;;;;18.03;10.03;;;;;;;12.59;100.00;100652.38;5004435;28;20292;-74
2023/09/28 05:38:51;;;;;;;18.93;11.40;;;;;;;12.68;100.00;100657.75;4987153;28;20227;-75
2023/09/28 05:41:17;;;;;;;20.20;11.70;;;;;;;12.82;100.00;100669.44;5005665;28;20231;-73
2023/09/28 05:43:44;;;;;;;21.17;11.67;;;;;;;12.83;100.00;100663.25;5003286;28;20220;-74
2023/09/28 05:46:10;;;;;;;17.07;10.80;;;;;;;12.85;100.00;100669.47;5007015;28;20200;-74
2023/09/28 05:48:37;;;;;;;17.80;11.10;;;;;;;12.91;100.00;100663.28;5001246;28;20199;-75
2023/09/28 05:51:03;;;;;;;16.60;10.53;;;;;;;12.94;100.00;100662.44;4991977;28;20204;-73
2023/09/28 05:53:30;;;;;;;14.87;9.90;;;;;;;12.86;100.00;100671.22;4998432;28;20236;-74
2023/09/28 05:55:56;;;;;;;16.97;9.50;;;;;;;12.81;100.00;100661.44;4998124;28;20319;-73
2023/09/28 05:58:22;;;;;;;15.40;9.70;;;;;;;12.77;100.00;100662.25;4984727;28;20235;-72
2023/09/28 06:00:49;;;;;;;18.63;10.53;;;;;;;12.77;100.00;100665.81;4986331;28;20580;-72
2023/09/28 06:03:18;;;;;;;16.53;10.63;;;;;;;12.76;100.00;100669.34;5002714;28;20235;-74
2023/09/28 06:05:46;;;;;;;17.30;10.23;;;;;;;12.81;100.00;100680.94;5004460;28;20294;-73
2023/09/28 06:08:12;;;;;;;16.43;10.57;;;;;;;12.98;100.00;100672.22;5004418;28;20212;-73
2023/09/28 06:10:39;;;;;;;18.63;11.10;;;;;;;13.07;100.00;100675.81;5003525;28;20510;-72
2023/09/28 06:13:05;;;;;;;17.30;11.10;;;;;;;13.17;100.00;100680.34;5001895;28;20216;-74
2023/09/28 06:15:32;;;;;;;20.30;11.70;;;;;;;13.20;100.00;100679.50;5002823;28;20635;-74
2023/09/28 06:17:58;;;;;;;16.73;11.23;;;;;;;13.28;100.00;100679.56;4986868;28;20200;-73
2023/09/28 06:20:25;;;;;;;21.23;11.60;;;;;;;13.30;100.00;100668.06;5002762;28;20200;-72
2023/09/28 06:22:53;;;;;;;19.83;10.93;;;;;;;13.33;100.00;100677.81;5005389;28;20299;-73
2023/09/28 06:25:19;;;;;;;17.27;10.57;;;;;;;13.42;100.00;100672.56;4984391;28;20657;-73
2023/09/28 06:27:47;;;;;;;16.13;10.87;;;;;;;13.45;100.00;100668.16;5003933;28;20208;-72
2023/09/28 06:30:13;;;;;;;18.07;11.17;;;;;;;13.53;100.00;100661.97;5002896;28;20262;-73
2023/09/28 06:32:40;;;;;;;17.40;10.80;;;;;;;13.58;100.00;100668.22;5004246;28;20196;-73
2023/09/28 06:35:08;;;;;;;24.40;12.13;;;;;;;13.67;100.00;100652.31;4988041;28;20197;-72
2023/09/28 06:37:35;;;;;;;21.83;11.20;;;;;;;13.73;100.00;100666.53;5002898;28;20212;-73
2023/09/28 06:40:03;;;;;;;24.00;13.23;;;;;;;13.82;100.00;100667.47;4992776;28;20231;-72
2023/09/28 06:42:30;;;;;;;21.10;11.40;;;;;;;13.88;100.00;100673.69;5003232;28;20648;-73
2023/09/28 06:45:03;;;;;;;28.33;12.90;;;;;;;14.03;100.00;100687.09;5009245;28;20212;-73
2023/09/28 06:47:30;;;;;;;20.70;12.17;;;;;;;14.19;100.00;100693.34;5010781;28;20196;-73
2023/09/28 06:50:17;;;;;;;23.17;12.90;;;;;;;14.30;100.00;100704.03;5006160;28;20605;-72
2023/09/28 06:52:43;;;;;;;21.57;12.97;;;;;;;14.35;100.00;100700.50;5008436;28;20739;-72
2023/09/28 06:55:10;;;;;;;21.20;12.47;;;;;;;14.44;100.00;100705.03;5007490;28;20196;-72
2023/09/28 06:57:36;;;;;;;23.30;14.37;;;;;;;14.49;100.00;100703.25;5007492;28;20684;-71
2023/09/28 07:00:08;;;;;;;23.57;13.93;;;;;;;14.58;100.00;100702.38;4989209;28;20299;-71
2023/09/28 07:02:35;;;;;;;22.03;12.57;;;;;;;14.62;100.00;100705.06;5009969;28;20307;-71
2023/09/28 07:05:03;;;;;;;20.73;12.53;;;;;;;14.69;100.00;100705.94;5010435;28;20200;-72
2023/09/28 07:07:30;;;;;;;22.33;12.33;;;;;;;14.77;100.00;100704.19;5007162;28;20204;-72
2023/09/28 07:09:57;;;;;;;20.90;12.67;;;;;;;14.89;100.00;100701.53;5007835;28;20204;-71
2023/09/28 07:12:23;;;;;;;26.67;12.60;;;;;;;14.97;100.00;100709.56;5007467;28;20622;-70
2023/09/28 07:14:50;;;;;;;28.13;15.70;;;;;;;15.14;100.00;100720.22;5002019;28;20208;-73
2023/09/28 07:17:16;;;;;;;21.37;13.40;;;;;;;15.24;100.00;100722.91;5007718;28;20550;-73
2023/09/28 07:19:42;;;;;;;22.93;13.33;;;;;;;15.37;100.00;100731.78;5003847;28;20207;-73
2023/09/28 07:22:09;;;;;;;22.93;13.27;;;;;;;15.45;100.00;100727.31;5008012;28;20208;-72
2023/09/28 07:24:36;;;;;;;26.20;14.30;;;;;;;15.52;100.00;100714.84;5007695;28;20347;-74
2023/09/28 07:27:05;;;;;;;24.03;14.37;;;;;;;15.61;100.00;100721.13;5009449;28;20207;-72
2023/09/28 07:29:32;;;;;;;26.47;14.83;;;;;;;15.71;100.00;100734.44;5009253;28;20645;-73
2023/09/28 07:31:59;;;;;;;24.30;14.57;;;;;;;15.78;100.00;100731.75;5007001;28;20204;-72
2023/09/28 07:34:26;;;;;;;26.67;13.90;;;;;;;15.85;100.00;100736.19;5005546;28;20286;-72
2023/09/28 07:36:53;;;;;;;24.73;14.07;;;;;;;15.95;100.00;100740.59;5004253;28;20208;-72
2023/09/28 07:39:20;;;;;;;29.03;14.30;;;;;;;16.06;100.00;100737.91;5007664;28;20196;-72
2023/09/28 07:41:47;;;;;;;24.50;14.57;;;;;;;16.11;100.00;100725.44;5007016;28;20796;-71
2023/09/28 07:44:13;;;;;;;22.00;13.40;;;;;;;16.22;100.00;100730.72;5008074;28;20306;-72
2023/09/28 07:46:41;;;;;;;25.20;14.00;;;;;;;16.31;100.00;100733.34;5010048;28;20262;-71
2023/09/28 07:49:07;;;;;;;22.07;14.03;;;;;;;16.43;100.00;100724.41;5002660;28;20196;-72
2023/09/28 07:51:34;;;;;;;24.47;14.30;;;;;;;16.57;100.00;100730.56;5008199;28;20208;-73
2023/09/28 07:54:01;;;;;;;24.30;13.37;;;;;;;16.73;100.00;100726.91;5004619;28;20236;-73
2023/09/28 07:56:27;;;;;;;23.00;13.23;;;;;;;16.89;100.00;100733.06;4990091;28;20753;-73
2023/09/28 07:58:54;;;;;;;23.53;13.20;;;;;;;17.07;100.00;100734.72;5004408;28;20204;-73
2023/09/28 08:01:20;;;;;;;22.43;11.97;;;;;;;17.20;100.00;100733.69;5008856;28;20695;-73
2023/09/28 08:03:47;;;;;;;24.57;13.50;;;;;;;17.32;100.00;100738.97;5006825;28;20228;-72
2023/09/28 08:06:13;;;;;;;24.50;13.67;;;;;;;17.39;100.00;100742.47;5002958;28;20259;-72
2023/09/28 08:08:55;;;;;;;27.13;14.03;;;;;;;17.51;100.00;100745.94;5005679;28;20302;-72
2023/09/28 08:11:22;;;;;;;28.13;14.57;;;;;;;17.49;100.00;100754.88;5001469;28;20231;-71
2023/09/28 08:13:48;;;;;;;25.10;15.50;;;;;;;17.52;100.00;100758.41;5005610;28;20255;-72
2023/09/28 08:16:15;;;;;;;23.10;13.30;;;;;;;17.51;100.00;100759.31;5006513;28;20201;-72
2023/09/28 08:18:41;;;;;;;22.10;13.63;;;;;;;17.67;100.00;100759.22;4989961;28;20199;-72
2023/09/28 08:21:09;;;;;;;23.23;13.30;;;;;;;17.74;100.00;100760.94;5000550;28;20720;-69
2023/09/28 08:23:37;;;;;;;22.30;13.67;;;;;;;17.78;100.00;100757.31;5004535;28;20231;-69
2023/09/28 08:26:06;;;;;;;28.70;15.10;;;;;;;17.84;100.00;100741.19;4988690;28;20244;-70
2023/09/28 08:28:33;;;;;;;25.70;13.30;;;;;;;17.93;100.00;100745.53;5003022;28;20850;-70
2023/09/28 08:31:03;;;;;;;25.40;13.33;;;;;;;18.06;100.00;100742.72;5003433;28;20603;-71
2023/09/28 08:33:29;;;;;;;24.57;12.93;;;;;;;18.17;100.00;100747.97;5005357;28;20247;-72
2023/09/28 08:35:56;;;;;;;22.53;12.90;;;;;;;18.30;100.00;100744.22;5006962;28;20207;-71
2023/09/28 08:38:22;;;;;;;22.35;13.20;;;;;;;18.46;100.00;100748.50;5008183;28;20203;-72
2023/09/28 08:40:53;;;;;;;25.45;13.73;;;;;;;18.57;100.00;100745.66;4990608;28;20675;-72
2023/09/28 08:43:21;;;;;;;24.23;13.68;;;;;;;18.69;100.00;100756.25;5005015;28;20220;-71
2023/09/28 08:45:51;;;;;;;25.80;13.82;;;;;;;18.82;100.00;100764.16;5005167;28;20572;-71
2023/09/28 08:48:21;;;;;;;24.02;13.25;;;;;;;18.85;100.00;100756.94;4991114;28;20379;-72
2023/09/28 08:50:52;;;;;;;19.98;12.20;;;;;;;18.97;100.00;100751.38;4999681;28;20307;-71
2023/09/28 08:53:19;;;;;;;15.68;9.77;;;;;;;19.12;100.00;100758.28;4997568;28;20299;-72
2023/09/28 08:55:46;;;;;;;13.40;8.75;;;;;;;19.21;100.00;100754.56;5006139;28;20287;-72
2023/09/28 08:58:13;;;;;;;16.00;10.23;;;;;;;19.28;100.00;100758.97;5004314;28;20586;-71
2023/09/28 09:00:40;;;;;;;12.93;9.00;;;;;;;19.42;100.00;100760.50;5004878;28;20224;-72
2023/09/28 09:03:08;;;;;;;14.90;9.13;;;;;;;19.52;100.00;100760.31;5006197;28;20643;-71
2023/09/28 09:05:39;;;;;;;13.88;7.82;;;;;;;19.68;100.00;100757.41;5003696;28;20208;-70
2023/09/28 09:08:08;;;;;;;11.90;7.53;;;;;;;19.84;100.00;100747.22;4990371;28;20208;-70
2023/09/28 09:10:36;;;;;;;11.00;7.88;;;;;;;19.92;100.00;100741.72;5000539;28;20239;-71
2023/09/28 09:13:02;;;;;;;10.35;6.97;;;;;;;19.91;100.00;100748.00;5008136;28;20857;-71
2023/09/28 09:15:29;;;;;;;12.77;7.35;;;;;;;19.84;100.00;100749.91;4989421;28;20280;-71
2023/09/28 09:18:00;;;;;;;12.85;7.72;;;;;;;19.85;100.00;100756.19;5005496;28;20228;-71
2023/09/28 09:20:29;;;;;;;12.52;8.30;;;;;;;19.70;100.00;100760.94;5006311;28;20269;-72
2023/09/28 09:23:09;;;;;;;10.63;7.63;;;;;;;19.80;100.00;100753.59;5002637;28;20240;-71
2023/09/28 09:25:44;;;;;;;15.15;7.60;;;;;;;19.88;100.00;100748.94;5003360;28;20295;-71
2023/09/28 09:28:12;;;;;;;12.38;7.72;;;;;;;19.93;100.00;100752.44;4983873;28;20610;-72
2023/09/28 09:30:39;;;;;;;14.38;8.40;;;;;;;20.13;100.00;100757.44;5007044;28;20232;-71
2023/09/28 09:33:08;;;;;;;12.30;7.72;;;;;;;20.22;100.00;100759.94;5004015;28;20232;-70
2023/09/28 09:35:38;;;;;;;11.18;7.22;;;;;;;20.42;100.00;100756.88;4984103;28;20209;-71
2023/09/28 09:38:04;;;;;;;13.00;7.68;;;;;;;20.68;100.00;100758.09;5003498;28;20645;-71
2023/09/28 09:40:32;;;;;;;13.63;8.15;;;;;;;20.71;100.00;100758.03;5003577;28;20595;-71
2023/09/28 09:43:07;;;;;;;12.77;7.30;;;;;;;20.97;100.00;100755.66;4987024;28;20227;-71
2023/09/28 09:45:38;;;;;;;14.65;9.45;;;;;;;21.11;100.00;100742.72;5000575;28;20282;-71
2023/09/28 09:48:09;;;;;;;14.55;10.05;;;;;;;21.19;100.00;100748.81;4998468;28;20589;-71
2023/09/28 09:50:38;;;;;;;17.92;8.90;;;;;;;21.36;100.00;100748.44;5004762;28;20227;-71
2023/09/28 09:53:07;;;;;;;14.05;8.15;;;;;;;21.64;100.00;100756.72;5000981;28;20239;-71
2023/09/28 09:55:40;;;;;;;15.05;9.57;;;;;;;21.66;100.00;100753.97;5003899;28;20657;-71
2023/09/28 09:58:17;;;;;;;16.27;8.80;;;;;;;21.82;100.00;100753.53;4997983;28;20203;-71
2023/09/28 10:00:44;;;;;;;16.60;9.10;;;;;;;21.92;100.00;100758.66;5004818;28;20242;-71
2023/09/28 10:03:11;;;;;;;14.52;8.85;;;;;;;21.97;100.00;100749.50;5004108;28;20227;-71
2023/09/28 10:05:38;;;;;;;12.00;7.38;;;;;;;22.11;100.00;100754.56;5000849;28;20246;-71
2023/09/28 10:08:07;;;;;;;16.05;8.20;;;;;;;22.20;100.00;100763.28;5001595;28;20200;-71
2023/09/28 10:10:35;;;;;;;11.18;7.70;;;;;;;22.29;100.00;100755.84;5002424;28;20661;-71
2023/09/28 10:13:02;;;;;;;13.05;7.47;;;;;;;22.45;100.00;100738.28;5001485;28;20231;-71
2023/09/28 10:15:28;;;;;;;14.00;8.82;;;;;;;22.60;100.00;100737.81;5004525;28;20204;-71
2023/09/28 10:17:55;;;;;;;15.38;9.30;;;;;;;22.64;94.19;100738.59;5006476;28;20694;-71
2023/09/28 10:20:23;;;;;;;12.57;9.27;;;;;;;22.70;93.24;100744.69;5006673;28;20250;-70
2023/09/28 10:22:50;;;;;;;15.95;8.50;;;;;;;22.84;94.88;100747.03;5008258;28;20294;-70
2023/09/28 10:25:17;;;;;;;14.38;9.38;;;;;;;22.88;94.56;100743.28;5001537;28;20746;-71
2023/09/28 10:27:45;;;;;;;13.45;9.40;;;;;;;22.96;92.09;100740.34;5003970;28;20211;-71
2023/09/28 10:30:19;;;;;;;14.07;8.88;;;;;;;23.19;91.67;100731.47;4988468;28;20200;-71
2023/09/28 10:32:47;;;;;;;16.23;9.85;;;;;;;23.34;89.19;100729.16;5007379;28;20299;-71
2023/09/28 10:35:19;;;;;;;16.20;9.10;;;;;;;23.50;89.43;100732.22;5008704;28;20497;-71
2023/09/28 10:38:17;;;;;;;17.98;10.27;;;;;;;23.61;84.88;100739.97;5004002;28;20746;-71
2023/09/28 10:40:48;;;;;;;15.57;9.82;;;;;;;23.62;84.88;100739.97;5004552;28;20196;-71
2023/09/28 10:43:33;;;;;;;16.30;9.57;;;;;;;23.80;83.59;100743.84;5002398;28;20711;-71
2023/09/28 10:46:04;;;;;;;10.65;7.63;;;;;;;24.01;83.85;100742.16;5002118;28;20223;-70
2023/09/28 10:48:39;;;;;;;13.35;8.98;;;;;;;24.29;81.38;100742.06;4992085;28;20203;-72
2023/09/28 10:51:13;;;;;;;15.98;8.93;;;;;;;24.49;78.48;100741.34;5006517;28;20882;-71
2023/09/28 10:53:40;;;;;;;15.07;8.85;;;;;;;24.58;77.38;100743.69;5004377;28;20231;-71
2023/09/28 10:56:06;;;;;;;16.40;9.73;;;;;;;24.73;75.97;100750.31;5003960;28;20205;-71
2023/09/28 10:58:41;;;;;;;14.23;8.95;;;;;;;24.68;75.17;100745.97;5001801;28;20200;-71
2023/09/28 11:01:08;;;;;;;16.80;8.75;;;;;;;24.78;75.71;100740.19;5002664;28;20231;-71
2023/09/28 11:03:35;;;;;;;14.23;8.00;;;;;;;24.79;74.62;100734.69;5002589;28;20347;-71
2023/09/28 11:06:04;;;;;;;11.05;7.88;;;;;;;24.86;75.10;100740.78;4996173;28;20283;-71
2023/09/28 11:08:32;;;;;;;13.00;8.38;;;;;;;24.88;72.57;100737.06;5006987;28;20434;-72
2023/09/28 11:11:01;;;;;;;11.43;7.97;;;;;;;25.00;72.12;100724.88;4986974;28;20219;-71